^^

Meteo Aereoporti Centro-Italia

 

 
LIRZ - Perugia S.Egidio (208 m.)
Dati ricevuti: 21/05/2019 06:39
Pioviggine, Molto Nuvoloso
Pioviggine, Molto Nuvoloso
 Vento da SW
Vento: SW 6 km/h
TEMPERATURA: 13°C
P.to di Rugiada: 11°C
Umidità: 88%
Pressione: 1011 hPa
Condizioni generali: Pioviggine
Nuvole: Molto nuvoloso
Visibilità: 10 km
Dettagli Nuvole: Molto nuvoloso 488 m
Molto nuvoloso 1311 m
2019/05/21 04:39 LIRZ 210439Z AUTO 22003KT 9999 DZ BKN016/// BKN043/// 13/11 Q1011
 
LIPY - Ancona Falconara (12 m.)
Dati ricevuti: 21/05/2019 05:50
Sereno
Sereno
 Vento da SSE
Vento: SSE 6 km/h
TEMPERATURA: 10°C
P.to di Rugiada: 9°C
Umidità: 94%
Pressione: 1008 hPa
Condizioni generali: Sereno
Visibilità: oltre 10 km
2019/05/21 03:50 LIPY 210350Z 16003KT 140V210 CAVOK 10/09 Q1008
 
LIPR - Rimini Miramare (12 m.)
Dati ricevuti: 21/05/2019 06:50
Coperto
Coperto
 Vento da S
Vento: S 7 km/h
TEMPERATURA: 15°C
P.to di Rugiada: 10°C
Umidità: 72%
Pressione: 1008 hPa
Nuvole: Coperto
Visibilità: 10 km
Dettagli Nuvole: Coperto 1890 m
2019/05/21 04:50 LIPR 210450Z AUTO 17004KT 130V200 9999 OVC062/// 15/10 Q1008
 
LIRF - Roma Fiumicino (2 m.)
Dati ricevuti: 21/05/2019 06:50
Molto nuvoloso
Molto nuvoloso
 Vento da SW
Vento: SW 13 km/h
TEMPERATURA: 16°C
P.to di Rugiada: 14°C
Umidità: 88%
Pressione: 1011 hPa
Nuvole: Molto nuvoloso
Visibilità: 8 km
Dettagli Nuvole: Qualche nuvola 366 m
Molto nuvoloso 914 m
2019/05/21 04:50 LIRF 210450Z 23007KT 8000 FEW012 BKN030 16/14 Q1011 TEMPO RA
 
LIRA - Roma Ciampino (129 m.)
Dati ricevuti: 21/05/2019 06:50
Pioggia debole, Molto Nuvoloso
Pioggia debole, Molto Nuvoloso
 Vento da S
Vento: S 11 km/h
TEMPERATURA: 14°C
P.to di Rugiada: 12°C
Umidità: 88%
Pressione: 1012 hPa
Condizioni generali: Pioggia debole
Nuvole: Molto nuvoloso
Visibilità: 7 km
Dettagli Nuvole: Qualche nuvola 213 m
Poco nuvoloso 305 m
Molto nuvoloso 610 m
2019/05/21 04:50 LIRA 210450Z 17006KT 7000 -RA FEW007 SCT010 BKN020 14/12 Q1012
 
LIRU - Roma Urbe (17 m.)
Dati ricevuti: 20/05/2019 19:50
Dati non aggiornati
Molto nuvoloso
Molto nuvoloso
 Vento da SSW
Vento: SSW 11 km/h
TEMPERATURA: 16°C
P.to di Rugiada: 11°C
Umidità: 72%
Pressione: 1011 hPa
Nuvole: Molto nuvoloso
Visibilità: 10 km
Dettagli Nuvole: Poco nuvoloso 610 m
Molto nuvoloso 1372 m
2019/05/20 17:50 LIRU 201750Z 21006KT 9999 SCT020 BKN045 16/11 Q1011
 
LIVF - Frontone (570 m.)
Dati ricevuti: 21/05/2019 05:55
Molto nuvoloso
Molto nuvoloso
 Vento da NW
Vento: NW 11 km/h
TEMPERATURA: 11°C
P.to di Rugiada: 8°C
Umidità: 82%
Pressione: 1008 hPa
Nuvole: Molto nuvoloso
Visibilità: 10 km
Dettagli Nuvole: Molto nuvoloso 671 m
2019/05/21 03:55 LIVF 210355Z 31006KT 9999 BKN022 11/08 Q1008
 
LIRQ - Firenze Peretola (40 m.)
Dati ricevuti: 21/05/2019 06:50
Leggera pioggerella, Molto Nuvoloso
Leggera pioggerella, Molto Nuvoloso
 Vento da ESE
Vento: ESE 6 km/h
TEMPERATURA: 13°C
P.to di Rugiada: 13°C
Umidità: 100%
Pressione: 1010 hPa
Condizioni generali: Leggera pioggerella
Nuvole: Molto nuvoloso
Visibilità: 8 km
Dettagli Nuvole: Poco nuvoloso 457 m
Molto nuvoloso 914 m
2019/05/21 04:50 LIRQ 210450Z 11003KT 8000 -DZ SCT015 BKN030 13/13 Q1010
 
LIBP - Pescara (10 m.)
Dati ricevuti: 21/05/2019 05:50
Sereno
Sereno
 Vento da W
Vento: W 9 km/h
TEMPERATURA: 15°C
P.to di Rugiada: 7°C
Umidità: 59%
Pressione: 1009 hPa
Nuvole: Sereno
Visibilità: 10 km
2019/05/21 03:50 LIBP 210350Z AUTO 27005KT 9999 NCD 15/07 Q1009
 
LIRV - Viterbo (300 m.)
Dati ricevuti: 20/05/2019 20:55
Dati non aggiornati
Molto nuvoloso
Molto nuvoloso
 Vento da direzione variabile
Vento: direzione variabile 0 km/h
TEMPERATURA: 13°C
P.to di Rugiada: 11°C
Umidità: 88%
Pressione: 1010 hPa
Nuvole: Molto nuvoloso
Visibilità: 10 km
Dettagli Nuvole: Poco nuvoloso 610 m
Molto nuvoloso 1219 m
2019/05/20 18:55 LIRV 201855Z /////KT 9999 SCT020 BKN040 13/11 Q1010
 
LIQN - Rieti (389 m.)
Dati ricevuti: 20/05/2019 19:50
Dati non aggiornati
Molto nuvoloso
Molto nuvoloso
 Vento da direzione variabile
Vento: direzione variabile 6 km/h
TEMPERATURA: 14°C
P.to di Rugiada: 8°C
Umidità: 67%
Pressione: 1010 hPa
Nuvole: Molto nuvoloso
Visibilità: 10 km
Dettagli Nuvole: Molto nuvoloso 914 m
2019/05/20 17:50 LIQN 201750Z VRB03KT 9999 BKN030 14/08 Q1010
 
LIRG - Guidonia -RM- (88 m.)
Dati ricevuti: 20/05/2019 19:55
Dati non aggiornati
Poco nuvoloso
Poco nuvoloso
 Vento da S
Vento: S 11 km/h
TEMPERATURA: 17°C
P.to di Rugiada: 11°C
Umidità: 68%
Pressione: 1011 hPa
Nuvole: Poco nuvoloso
Visibilità: 10 km
Dettagli Nuvole: Poco nuvoloso 1067 m
2019/05/20 17:55 LIRG 201755Z 17006KT 9999 SCT035 17/11 Q1011
 
LIRK - Terminillo -RI-(1874 m.)
Dati ricevuti: 21/05/2019 05:55

 Vento da direzione variabile
Vento: direzione variabile 15 km/h
TEMPERATURA: 2°C
Raffreddamento da Vento: -2°C
P.to di Rugiada: 2°C
Umidità: 100%
Pressione: 1012 hPa
2019/05/21 03:55 LIRK 210355Z AUTO VRB08KT //// 02/02 Q1012
 
LIPK - Forlì (27 m.)
Dati ricevuti: 20/05/2019 17:50
Dati non aggiornati
Poco nuvoloso
Poco nuvoloso
 Vento da SW
Vento: SW 19 km/h
TEMPERATURA: 20°C
P.to di Rugiada: 8°C
Umidità: 46%
Pressione: 1006 hPa
Nuvole: Poco nuvoloso
Visibilità: 10 km
Dettagli Nuvole: Qualche nuvola 610 m
Poco nuvoloso 914 m
2019/05/20 15:50 LIPK 201550Z 22010KT 9999 FEW020CB SCT030 20/08 Q1006
 
LIRS - Grosseto (5 m.)
Dati ricevuti: 21/05/2019 05:55
Pioggia debole, Poco nuvoloso
Pioggia debole, Poco nuvoloso
 Vento da E
Vento: E 4 km/h
TEMPERATURA: 15°C
P.to di Rugiada: 13°C
Umidità: 88%
Pressione: 1010 hPa
Condizioni generali: Pioggia debole
Nuvole: Poco nuvoloso
Visibilità: 10 km
Dettagli Nuvole: Qualche nuvola 457 m
Poco nuvoloso 1829 m
2019/05/21 03:55 LIRS 210355Z 09002KT 9999 -RA FEW015 SCT060 15/13 Q1010
 
LIRP - Pisa S.Giusto (2 m.)
Dati ricevuti: 21/05/2019 06:45
Molto nuvoloso
Molto nuvoloso
 Vento da SE
Vento: SE 4 km/h
TEMPERATURA: 13°C
P.to di Rugiada: 13°C
Umidità: 100%
Pressione: 1010 hPa
Nuvole: Molto nuvoloso
Visibilità: 7 km
Dettagli Nuvole: Qualche nuvola 305 m
Poco nuvoloso 457 m
Molto nuvoloso 762 m
2019/05/21 04:45 LIRP 210445Z 13002KT 7000 FEW010 SCT015 BKN025 13/13 Q1010 TEMPO 5000